Time;durP1;ratioP1;P1;durP2;ratioP2;P2;SDS_P1;SDS_P2;PMS_P1;PMS_P2;Temp;Humidity;BMP_temperature;BMP_pressure;BME280_temperature;BME280_humidity;BME280_pressure;Samples;Min_cycle;Max_cycle;Signal;HPM_P1;HPM_P2
2022/03/15 00:01:26;;;;;;;8.90;4.38;;;10.00;98.70;;;;;;7346072;19;109560;-91
2022/03/15 00:03:53;;;;;;;9.73;4.65;;;10.00;98.70;;;;;;7344442;19;108255;-91
2022/03/15 00:06:20;;;;;;;8.02;4.70;;;10.00;98.70;;;;;;7345260;19;108498;-92
2022/03/15 00:08:48;;;;;;;9.90;4.32;;;9.90;98.60;;;;;;7343463;19;109607;-91
2022/03/15 00:11:15;;;;;;;7.00;4.07;;;10.00;98.60;;;;;;7343403;19;109482;-90
2022/03/15 00:13:43;;;;;;;8.68;4.65;;;10.00;98.60;;;;;;7344758;19;108412;-90
2022/03/15 00:16:11;;;;;;;11.82;4.55;;;9.90;98.60;;;;;;7344698;19;111491;-91
2022/03/15 00:18:38;;;;;;;10.38;4.63;;;10.00;98.60;;;;;;7347341;19;110515;-90
2022/03/15 00:21:10;;;;;;;6.32;4.25;;;9.90;98.50;;;;;;7342429;19;110916;-90
2022/03/15 00:23:38;;;;;;;6.78;4.40;;;9.90;98.60;;;;;;7340036;19;109690;-91
2022/03/15 00:26:07;;;;;;;12.05;7.32;;;9.90;98.60;;;;;;7342346;19;108458;-88
2022/03/15 00:28:35;;;;;;;15.40;6.32;;;9.80;98.70;;;;;;7342449;19;109438;-90
2022/03/15 00:31:03;;;;;;;15.98;6.53;;;9.90;98.70;;;;;;7342311;19;111782;-91
2022/03/15 00:33:31;;;;;;;18.33;6.90;;;9.80;98.70;;;;;;7344959;19;108860;-91
2022/03/15 00:35:59;;;;;;;10.63;6.88;;;9.80;98.70;;;;;;7340402;19;111977;-90
2022/03/15 00:38:27;;;;;;;13.43;6.97;;;9.80;98.70;;;;;;7342374;19;109077;-91
2022/03/15 00:40:55;;;;;;;16.80;7.32;;;9.80;98.70;;;;;;7346762;19;109030;-91
2022/03/15 00:43:22;;;;;;;13.68;7.60;;;9.80;98.70;;;;;;7343064;19;110099;-90
2022/03/15 00:45:50;;;;;;;13.65;6.88;;;9.80;98.90;;;;;;7341961;19;110464;-91
2022/03/15 00:48:19;;;;;;;13.50;7.20;;;9.80;98.80;;;;;;7342414;19;109490;-90
2022/03/15 00:50:46;;;;;;;11.73;6.78;;;9.70;98.80;;;;;;7342684;19;109635;-90
2022/03/15 00:53:13;;;;;;;13.05;7.07;;;9.70;98.80;;;;;;7342003;19;108652;-91
2022/03/15 00:55:41;;;;;;;15.10;7.00;;;9.70;98.90;;;;;;7342167;19;109913;-90
2022/03/15 00:58:10;;;;;;;17.67;7.43;;;9.70;99.00;;;;;;7339710;19;109666;-91
2022/03/15 01:00:37;;;;;;;16.00;7.82;;;9.70;99.00;;;;;;7346559;19;108397;-91
2022/03/15 01:03:05;;;;;;;14.18;7.22;;;9.60;99.10;;;;;;7341988;19;109810;-90
2022/03/15 01:05:32;;;;;;;12.35;6.88;;;9.60;99.10;;;;;;7343805;19;108465;-91
2022/03/15 01:07:59;;;;;;;17.30;7.57;;;9.60;99.10;;;;;;7341830;19;109906;-91
2022/03/15 01:10:27;;;;;;;17.98;7.20;;;9.60;99.10;;;;;;7343077;19;109104;-91
2022/03/15 01:12:54;;;;;;;15.82;7.78;;;9.60;99.10;;;;;;7340549;19;109960;-90
2022/03/15 01:15:25;;;;;;;15.50;8.30;;;9.50;99.20;;;;;;7340668;19;109783;-91
2022/03/15 01:17:52;;;;;;;19.65;8.55;;;9.50;99.20;;;;;;7339477;19;109927;-90
2022/03/15 01:20:20;;;;;;;15.95;7.38;;;9.50;99.10;;;;;;7343167;19;108657;-90
2022/03/15 01:22:47;;;;;;;15.05;8.07;;;9.50;99.10;;;;;;7347519;19;109599;-90
2022/03/15 01:25:14;;;;;;;14.32;7.95;;;9.50;99.10;;;;;;7342706;19;108191;-90
2022/03/15 01:27:41;;;;;;;15.50;7.85;;;9.50;99.20;;;;;;7342177;19;111954;-90
2022/03/15 01:30:09;;;;;;;14.55;8.48;;;9.50;99.30;;;;;;7340540;19;112192;-91
2022/03/15 01:32:36;;;;;;;19.55;7.85;;;9.40;99.20;;;;;;7340932;19;108562;-90
2022/03/15 01:35:04;;;;;;;16.40;8.20;;;9.40;99.20;;;;;;7343521;19;109990;-91
2022/03/15 01:37:32;;;;;;;15.88;8.50;;;9.30;99.40;;;;;;7340031;19;110312;-90
2022/03/15 01:40:00;;;;;;;15.93;7.78;;;9.30;99.40;;;;;;7342079;19;108495;-91
2022/03/15 01:42:27;;;;;;;17.73;8.18;;;9.30;99.40;;;;;;7343720;19;109155;-90
2022/03/15 01:44:54;;;;;;;15.82;7.95;;;9.30;99.40;;;;;;7348232;19;110300;-91
2022/03/15 01:47:21;;;;;;;16.13;7.35;;;9.30;99.40;;;;;;7343387;19;108710;-90
2022/03/15 01:49:48;;;;;;;15.25;7.43;;;9.30;99.50;;;;;;7344327;19;108888;-89
2022/03/15 01:52:16;;;;;;;23.55;8.18;;;9.30;99.40;;;;;;7342148;19;110286;-90
2022/03/15 01:54:44;;;;;;;16.00;8.35;;;9.30;99.40;;;;;;7344285;19;110080;-90
2022/03/15 01:57:11;;;;;;;23.52;8.40;;;9.30;99.40;;;;;;7343396;19;110207;-91
2022/03/15 01:59:39;;;;;;;17.30;9.20;;;9.20;99.80;;;;;;7342375;19;108472;-90
2022/03/15 02:02:07;;;;;;;18.80;9.35;;;9.10;99.80;;;;;;7342104;19;109931;-90
2022/03/15 02:04:38;;;;;;;20.55;9.02;;;9.10;99.80;;;;;;7342665;19;110455;-90
2022/03/15 02:07:11;;;;;;;19.92;9.00;;;9.10;99.80;;;;;;7347402;19;108496;-90
2022/03/15 02:09:38;;;;;;;16.23;8.65;;;9.10;99.70;;;;;;7343450;19;109553;-90
2022/03/15 02:12:06;;;;;;;20.30;9.25;;;9.10;99.70;;;;;;7342422;19;107999;-90
2022/03/15 02:14:34;;;;;;;20.58;8.88;;;9.10;99.90;;;;;;7343829;19;111597;-90
2022/03/15 02:17:01;;;;;;;16.80;8.15;;;9.00;99.90;;;;;;7340739;19;110272;-89
2022/03/15 02:19:29;;;;;;;21.30;8.43;;;9.00;99.90;;;;;;7342309;19;109076;-89
2022/03/15 02:21:57;;;;;;;16.20;7.93;;;9.00;99.90;;;;;;7344292;19;108453;-88
2022/03/15 02:24:25;;;;;;;16.20;7.80;;;9.00;99.90;;;;;;7348030;19;109346;-89
2022/03/15 02:26:52;;;;;;;16.38;8.00;;;9.00;99.90;;;;;;7347324;19;108544;-89
2022/03/15 02:29:20;;;;;;;23.50;8.60;;;9.10;99.90;;;;;;7353481;19;112716;-89
2022/03/15 02:31:49;;;;;;;17.67;7.60;;;9.10;99.80;;;;;;7350672;19;109126;-88
2022/03/15 02:34:17;;;;;;;14.60;7.70;;;9.10;99.70;;;;;;7347610;19;108684;-90
2022/03/15 02:36:44;;;;;;;16.30;7.65;;;9.10;99.70;;;;;;7347478;19;111753;-89
2022/03/15 02:39:11;;;;;;;18.23;7.50;;;9.00;99.80;;;;;;7346003;19;110181;-90
2022/03/15 02:41:38;;;;;;;17.50;7.13;;;9.00;99.90;;;;;;7346785;19;111130;-90
2022/03/15 02:44:06;;;;;;;15.65;7.32;;;9.00;99.90;;;;;;7349805;19;110055;-89
2022/03/15 02:46:34;;;;;;;12.75;7.25;;;9.00;99.90;;;;;;7346407;19;108700;-90
2022/03/15 02:49:02;;;;;;;13.82;7.10;;;9.00;99.80;;;;;;7352551;19;109826;-90
2022/03/15 02:51:31;;;;;;;13.35;7.25;;;9.00;99.80;;;;;;7348042;19;108241;-91
2022/03/15 02:54:02;;;;;;;14.68;6.82;;;9.00;99.80;;;;;;7349209;19;108724;-90
2022/03/15 02:56:29;;;;;;;14.60;7.18;;;9.00;99.80;;;;;;7345975;19;112118;-90
2022/03/15 02:58:56;;;;;;;19.40;7.55;;;8.90;99.80;;;;;;7346849;19;109876;-90
2022/03/15 03:01:24;;;;;;;12.40;6.85;;;8.90;99.90;;;;;;7347968;19;108977;-90
2022/03/15 03:03:53;;;;;;;16.48;7.75;;;8.90;99.80;;;;;;7348886;19;113331;-90
2022/03/15 03:06:20;;;;;;;13.25;6.30;;;8.90;99.80;;;;;;7348939;19;109052;-90
2022/03/15 03:08:48;;;;;;;21.15;7.10;;;8.90;99.70;;;;;;7348578;19;108487;-90
2022/03/15 03:11:15;;;;;;;17.15;6.80;;;8.90;99.80;;;;;;7351946;19;110513;-89
2022/03/15 03:13:44;;;;;;;13.05;7.20;;;8.90;99.80;;;;;;7348766;19;112016;-90
2022/03/15 03:16:13;;;;;;;13.60;6.55;;;8.90;99.80;;;;;;7347256;19;113029;-90
2022/03/15 03:18:40;;;;;;;12.15;6.28;;;8.90;99.90;;;;;;7344845;19;108315;-90
2022/03/15 03:21:07;;;;;;;18.67;6.60;;;8.90;99.70;;;;;;7347927;19;112025;-90
2022/03/15 03:23:35;;;;;;;15.77;6.93;;;8.90;99.70;;;;;;7347895;19;110173;-89
2022/03/15 03:26:03;;;;;;;14.18;7.05;;;8.90;99.80;;;;;;7348398;19;108928;-90
2022/03/15 03:28:36;;;;;;;11.95;6.53;;;8.90;99.80;;;;;;7348035;19;112503;-89
2022/03/15 03:31:06;;;;;;;13.32;6.95;;;8.90;99.80;;;;;;7346988;19;110423;-89
2022/03/15 03:33:33;;;;;;;16.38;7.35;;;8.90;99.90;;;;;;7351623;19;108402;-90
2022/03/15 03:36:02;;;;;;;12.00;6.63;;;8.90;99.90;;;;;;7347293;19;110608;-90
2022/03/15 03:38:29;;;;;;;17.35;6.88;;;8.90;99.80;;;;;;7346758;19;109570;-90
2022/03/15 03:40:57;;;;;;;16.30;6.50;;;8.90;99.80;;;;;;7346265;19;108451;-90
2022/03/15 03:43:25;;;;;;;13.90;6.55;;;8.90;99.90;;;;;;7346558;19;110785;-90
2022/03/15 03:45:52;;;;;;;13.68;6.45;;;8.90;99.90;;;;;;7347720;19;108613;-90
2022/03/15 03:48:19;;;;;;;14.32;6.65;;;8.90;99.90;;;;;;7345674;19;109866;-89
2022/03/15 03:50:49;;;;;;;14.98;6.22;;;8.90;99.90;;;;;;7347352;19;109644;-89
2022/03/15 03:53:17;;;;;;;15.70;6.82;;;8.90;99.90;;;;;;7343491;19;110097;-89
2022/03/15 03:55:45;;;;;;;13.98;6.20;;;8.90;99.90;;;;;;7350992;19;109447;-89
2022/03/15 03:58:12;;;;;;;15.35;6.43;;;8.90;99.90;;;;;;7345006;19;108693;-91
2022/03/15 04:00:39;;;;;;;14.95;6.78;;;8.90;99.90;;;;;;7342643;19;108515;-89
2022/03/15 04:03:06;;;;;;;17.40;6.15;;;8.90;99.90;;;;;;7344365;19;109471;-89
2022/03/15 04:05:36;;;;;;;18.52;6.93;;;8.80;99.90;;;;;;7346604;19;108136;-88
2022/03/15 04:08:03;;;;;;;12.35;6.03;;;8.80;99.90;;;;;;7347331;19;109457;-89
2022/03/15 04:10:34;;;;;;;14.30;6.85;;;8.70;99.90;;;;;;7347436;19;111503;-89
2022/03/15 04:13:02;;;;;;;14.55;6.60;;;8.70;99.90;;;;;;7349223;19;108186;-89
2022/03/15 04:15:31;;;;;;;13.57;6.43;;;8.70;99.90;;;;;;7347970;19;109603;-90
2022/03/15 04:17:59;;;;;;;12.05;6.60;;;8.70;99.90;;;;;;7349545;19;110800;-90
2022/03/15 04:20:26;;;;;;;11.40;6.30;;;8.80;99.90;;;;;;7347758;19;112565;-89
2022/03/15 04:22:53;;;;;;;11.43;5.88;;;8.80;99.90;;;;;;7347436;19;110542;-89
2022/03/15 04:25:22;;;;;;;12.73;5.80;;;8.80;99.90;;;;;;7345043;19;108345;-89
2022/03/15 04:27:48;;;;;;;15.68;6.68;;;8.80;99.90;;;;;;7347003;19;109820;-89
2022/03/15 04:30:16;;;;;;;10.80;6.10;;;8.70;99.90;;;;;;7347111;19;110228;-89
2022/03/15 04:32:43;;;;;;;13.63;5.95;;;8.70;99.90;;;;;;7345275;19;108457;-89
2022/03/15 04:35:11;;;;;;;13.85;6.00;;;8.70;99.90;;;;;;7343174;19;109621;-89
2022/03/15 04:37:38;;;;;;;17.05;6.45;;;8.70;99.90;;;;;;7339931;19;109525;-90
2022/03/15 04:40:07;;;;;;;19.40;6.30;;;8.70;99.90;;;;;;7347318;19;108350;-89
2022/03/15 04:42:39;;;;;;;19.30;6.30;;;8.70;99.90;;;;;;7342875;19;109758;-89
2022/03/15 04:45:08;;;;;;;16.17;7.10;;;8.60;99.90;;;;;;7342816;19;108456;-90
2022/03/15 04:47:35;;;;;;;14.48;6.28;;;8.60;99.90;;;;;;7344061;19;109465;-89
2022/03/15 04:50:03;;;;;;;15.15;6.13;;;8.60;99.90;;;;;;7344237;19;109960;-90
2022/03/15 04:52:30;;;;;;;16.60;6.13;;;8.50;99.90;;;;;;7343365;19;108900;-90
2022/03/15 04:54:57;;;;;;;14.10;6.10;;;8.50;99.90;;;;;;7343900;19;109535;-89
2022/03/15 04:57:25;;;;;;;13.85;6.13;;;8.50;99.90;;;;;;7344347;19;110400;-90
2022/03/15 04:59:52;;;;;;;20.13;6.65;;;8.60;99.90;;;;;;7345190;19;108364;-90
2022/03/15 05:02:19;;;;;;;10.27;5.93;;;8.60;99.90;;;;;;7345175;19;110966;-90
2022/03/15 05:04:47;;;;;;;13.60;5.65;;;8.60;99.90;;;;;;7344290;19;108851;-89
2022/03/15 05:07:14;;;;;;;14.38;6.10;;;8.60;99.90;;;;;;7343079;19;109718;-90
2022/03/15 05:11:06;;;;;;;11.35;5.22;;;8.60;99.90;;;;;;7344466;19;113585;-89
2022/03/15 05:12:28;;;;;;;11.65;5.65;;;8.60;99.90;;;;;;7345199;19;108914;-90
2022/03/15 05:14:56;;;;;;;11.13;5.60;;;8.60;99.90;;;;;;7344941;19;108730;-90
2022/03/15 05:17:24;;;;;;;9.93;5.45;;;8.60;99.90;;;;;;7343175;19;113598;-90
2022/03/15 05:19:51;;;;;;;14.85;6.05;;;8.60;99.90;;;;;;7342577;19;108401;-89
2022/03/15 05:22:20;;;;;;;16.77;5.65;;;8.60;99.90;;;;;;7349906;19;109891;-90
2022/03/15 05:24:48;;;;;;;17.63;5.70;;;8.60;99.90;;;;;;7344639;19;110461;-89
2022/03/15 05:27:16;;;;;;;15.02;5.57;;;8.60;99.90;;;;;;7344377;19;109671;-89
2022/03/15 05:29:43;;;;;;;14.32;5.47;;;8.60;99.90;;;;;;7342735;19;110532;-89
2022/03/15 05:32:10;;;;;;;9.88;5.40;;;8.70;99.90;;;;;;7339056;19;108681;-89
2022/03/15 05:34:37;;;;;;;13.23;5.28;;;8.70;99.90;;;;;;7342978;19;110206;-90
2022/03/15 05:37:05;;;;;;;13.90;5.55;;;8.70;99.90;;;;;;7343848;19;109760;-89
2022/03/15 05:39:32;;;;;;;19.60;4.90;;;8.80;99.90;;;;;;7341764;19;108429;-89
2022/03/15 05:42:00;;;;;;;9.10;4.82;;;8.70;99.90;;;;;;7340748;19;108789;-89
2022/03/15 05:44:27;;;;;;;13.13;4.78;;;8.80;99.90;;;;;;7350332;19;111233;-89
2022/03/15 05:46:55;;;;;;;13.60;5.15;;;8.80;99.90;;;;;;7340079;19;110224;-90
2022/03/15 05:49:22;;;;;;;14.70;5.40;;;8.80;99.90;;;;;;7343113;19;110858;-88
2022/03/15 05:51:50;;;;;;;17.88;4.85;;;8.80;99.90;;;;;;7343946;19;112414;-89
2022/03/15 05:54:17;;;;;;;13.40;5.25;;;8.80;99.90;;;;;;7341842;19;108498;-90
2022/03/15 05:56:45;;;;;;;14.38;5.30;;;8.70;99.90;;;;;;7344537;19;110641;-89
2022/03/15 05:59:13;;;;;;;15.25;4.90;;;8.70;99.90;;;;;;7346885;19;108317;-89
2022/03/15 06:01:40;;;;;;;13.68;4.80;;;8.70;99.90;;;;;;7348860;19;112268;-89
2022/03/15 06:04:10;;;;;;;12.40;5.03;;;8.70;99.90;;;;;;7350517;19;111912;-89
2022/03/15 06:06:37;;;;;;;14.68;5.28;;;8.80;99.90;;;;;;7354302;19;110741;-90
2022/03/15 06:09:05;;;;;;;11.85;4.65;;;8.80;99.90;;;;;;7343782;19;110100;-90
2022/03/15 06:11:34;;;;;;;10.48;4.82;;;8.80;99.90;;;;;;7347082;19;108444;-91
2022/03/15 06:14:02;;;;;;;9.38;4.45;;;8.90;99.90;;;;;;7348217;19;108872;-87
2022/03/15 06:16:29;;;;;;;16.75;5.35;;;8.90;99.90;;;;;;7346795;19;109105;-90
2022/03/15 06:18:56;;;;;;;9.48;4.68;;;8.90;99.90;;;;;;7344797;19;109799;-85
2022/03/15 06:21:23;;;;;;;10.65;4.68;;;9.00;99.90;;;;;;7343159;19;109672;-87
2022/03/15 06:23:50;;;;;;;12.48;4.50;;;9.00;99.90;;;;;;7343341;19;110116;-86
2022/03/15 06:26:34;;;;;;;14.35;4.35;;;9.00;99.90;;;;;;7344815;19;108672;-86
2022/03/15 06:29:02;;;;;;;13.85;4.97;;;9.00;99.90;;;;;;7344084;19;109370;-86
2022/03/15 06:31:34;;;;;;;23.02;5.53;;;9.00;99.90;;;;;;7336436;19;108879;-85
2022/03/15 06:34:04;;;;;;;10.68;4.20;;;9.00;99.90;;;;;;7343447;19;108899;-86
2022/03/15 06:36:32;;;;;;;12.73;4.80;;;9.00;99.90;;;;;;7336982;19;109450;-86
2022/03/15 06:38:59;;;;;;;10.60;4.47;;;9.00;99.90;;;;;;7340938;19;108888;-86
2022/03/15 06:41:27;;;;;;;15.70;4.60;;;9.10;99.90;;;;;;7343530;19;110144;-87
2022/03/15 06:43:54;;;;;;;15.13;5.60;;;9.10;99.90;;;;;;7343431;19;113205;-88
2022/03/15 06:46:22;;;;;;;11.25;4.53;;;9.10;99.90;;;;;;7344717;19;108535;-88
2022/03/15 06:48:50;;;;;;;13.05;4.90;;;9.10;99.90;;;;;;7339557;19;112240;-87
2022/03/15 06:51:17;;;;;;;11.98;4.97;;;9.10;99.90;;;;;;7342556;19;110876;-88
2022/03/15 06:53:44;;;;;;;7.38;4.60;;;9.20;99.90;;;;;;7340955;19;111140;-87
2022/03/15 06:56:11;;;;;;;12.18;4.65;;;9.20;99.90;;;;;;7340134;19;110123;-87
2022/03/15 06:58:38;;;;;;;16.98;4.72;;;9.20;99.90;;;;;;7344369;19;110302;-88
2022/03/15 07:01:05;;;;;;;13.50;4.70;;;9.20;99.90;;;;;;7343359;19;112436;-87
2022/03/15 07:03:34;;;;;;;13.65;4.22;;;9.30;99.90;;;;;;7342126;19;109567;-86
2022/03/15 07:06:01;;;;;;;10.68;4.65;;;9.30;99.90;;;;;;7351864;19;108791;-91
2022/03/15 07:08:28;;;;;;;8.48;4.70;;;9.30;99.90;;;;;;7349699;19;109780;-91
2022/03/15 07:10:55;;;;;;;8.02;4.15;;;9.30;99.90;;;;;;7355413;19;110447;-91
2022/03/15 07:13:22;;;;;;;8.25;4.13;;;9.30;99.90;;;;;;7350496;19;108933;-91
2022/03/15 07:15:49;;;;;;;10.50;4.15;;;9.30;99.90;;;;;;7350987;19;108499;-92
2022/03/15 07:18:19;;;;;;;11.43;4.03;;;9.20;99.90;;;;;;7348516;19;108974;-91
2022/03/15 07:20:46;;;;;;;9.63;4.38;;;9.30;99.90;;;;;;7349185;19;109902;-93
2022/03/15 07:23:13;;;;;;;8.85;3.80;;;9.30;99.90;;;;;;7348913;19;110694;-92
2022/03/15 07:25:40;;;;;;;10.23;4.13;;;9.30;99.90;;;;;;7352427;19;109595;-92
2022/03/15 07:28:07;;;;;;;9.82;3.92;;;9.30;99.90;;;;;;7351916;19;108824;-92
2022/03/15 07:30:34;;;;;;;13.50;4.53;;;9.30;99.90;;;;;;7350123;19;109527;-92
2022/03/15 07:33:02;;;;;;;12.23;4.40;;;9.40;99.90;;;;;;7354800;19;108380;-92
2022/03/15 07:35:29;;;;;;;9.88;4.05;;;9.40;99.90;;;;;;7352558;19;110269;-93
2022/03/15 07:37:56;;;;;;;9.55;4.30;;;9.40;99.90;;;;;;7350448;19;108957;-91
2022/03/15 07:40:24;;;;;;;11.32;4.57;;;9.50;99.90;;;;;;7351317;19;112044;-92
2022/03/15 07:42:52;;;;;;;7.20;3.58;;;9.50;99.90;;;;;;7347828;19;110856;-92
2022/03/15 07:45:19;;;;;;;7.82;4.18;;;9.60;99.90;;;;;;7347836;19;109132;-92
2022/03/15 07:47:49;;;;;;;10.73;3.72;;;9.60;99.90;;;;;;7352373;19;110122;-92
2022/03/15 07:50:18;;;;;;;9.52;4.22;;;9.60;99.90;;;;;;7351759;19;111459;-92
2022/03/15 07:52:47;;;;;;;9.38;4.15;;;9.60;99.90;;;;;;7351796;19;108838;-92
2022/03/15 07:55:15;;;;;;;6.93;4.00;;;9.70;99.90;;;;;;7355642;19;110056;-92
2022/03/15 07:57:42;;;;;;;12.15;4.28;;;9.70;99.90;;;;;;7349199;19;109653;-92
2022/03/15 08:00:10;;;;;;;27.50;5.18;;;9.70;99.90;;;;;;7348351;19;109637;-91
2022/03/15 08:02:37;;;;;;;10.40;4.80;;;9.80;99.90;;;;;;7349058;19;113261;-93
2022/03/15 08:05:06;;;;;;;11.77;3.70;;;9.80;99.90;;;;;;7350306;19;108465;-92
2022/03/15 08:07:35;;;;;;;9.75;4.03;;;9.80;99.90;;;;;;7349961;19;109989;-92
2022/03/15 08:10:10;;;;;;;9.20;4.22;;;9.80;99.90;;;;;;7349544;19;109612;-92
2022/03/15 08:12:39;;;;;;;13.73;4.00;;;9.90;99.90;;;;;;7350030;19;109976;-92
2022/03/15 08:15:08;;;;;;;13.27;4.45;;;9.90;99.90;;;;;;7349090;19;108909;-91
2022/03/15 08:17:36;;;;;;;12.23;4.22;;;9.90;99.90;;;;;;7352878;19;109889;-91
2022/03/15 08:20:04;;;;;;;11.30;4.15;;;10.00;99.90;;;;;;7348291;19;111017;-93
2022/03/15 08:22:31;;;;;;;15.60;4.57;;;10.00;99.90;;;;;;7350207;19;110203;-92
2022/03/15 08:24:59;;;;;;;9.15;3.40;;;10.00;99.90;;;;;;7350541;19;109068;-92
2022/03/15 08:27:26;;;;;;;14.52;4.18;;;10.00;99.90;;;;;;7348673;19;108607;-91
2022/03/15 08:29:56;;;;;;;7.25;3.70;;;10.10;99.90;;;;;;7349305;19;110168;-92
2022/03/15 08:32:23;;;;;;;9.63;4.55;;;10.10;99.90;;;;;;7349315;19;108801;-90
2022/03/15 08:34:50;;;;;;;11.80;3.78;;;10.10;99.90;;;;;;7346443;19;110026;-92
2022/03/15 08:37:17;;;;;;;;;;;10.10;99.90;;;;;;7349469;19;109421;-93
2022/03/15 08:39:44;;;;;;;8.45;4.40;;;10.20;99.90;;;;;;7356971;19;110276;-92
2022/03/15 08:42:11;;;;;;;7.88;4.50;;;10.20;99.90;;;;;;7354017;19;108164;-93
2022/03/15 08:44:39;;;;;;;11.93;4.40;;;10.20;99.90;;;;;;7360104;19;108352;-93
2022/03/15 08:47:06;;;;;;;12.00;4.32;;;10.30;99.90;;;;;;7359478;19;108388;-94
2022/03/15 08:49:33;;;;;;;8.63;3.67;;;10.30;99.90;;;;;;7356824;19;111487;-95
2022/03/15 08:52:01;;;;;;;10.40;4.43;;;10.40;99.90;;;;;;7364531;19;108302;-94
2022/03/15 08:54:28;;;;;;;10.70;3.95;;;10.40;99.90;;;;;;7356197;19;107975;-95
2022/03/15 08:56:56;;;;;;;14.05;3.97;;;10.50;99.90;;;;;;7350191;19;109866;-92
2022/03/15 08:59:25;;;;;;;10.43;4.05;;;10.50;99.90;;;;;;7348296;19;108365;-93
2022/03/15 09:01:56;;;;;;;9.02;4.40;;;10.60;99.90;;;;;;7352857;19;107939;-92
2022/03/15 09:04:25;;;;;;;11.32;3.92;;;10.60;99.90;;;;;;7349418;19;108092;-93
2022/03/15 09:06:52;;;;;;;12.05;3.80;;;10.60;99.90;;;;;;7348572;19;111022;-92
2022/03/15 09:09:21;;;;;;;9.68;3.78;;;10.70;99.90;;;;;;7347324;19;112474;-92
2022/03/15 09:11:49;;;;;;;9.75;4.30;;;10.70;99.90;;;;;;7348717;19;108595;-92
2022/03/15 09:14:16;;;;;;;8.98;4.20;;;10.80;99.90;;;;;;7349106;19;111925;-92
2022/03/15 09:16:43;;;;;;;10.02;3.75;;;10.80;99.90;;;;;;7347628;19;112559;-93
2022/03/15 09:19:11;;;;;;;13.68;3.58;;;10.80;99.90;;;;;;7345083;19;108052;-93
2022/03/15 09:21:38;;;;;;;7.95;3.53;;;10.90;99.90;;;;;;7352615;19;109718;-93
2022/03/15 09:24:06;;;;;;;6.40;3.60;;;10.90;99.90;;;;;;7349181;19;109888;-92
2022/03/15 09:26:33;;;;;;;6.05;3.65;;;11.00;99.90;;;;;;7347516;19;108990;-93
2022/03/15 09:29:01;;;;;;;11.75;4.15;;;11.00;99.90;;;;;;7347497;19;113807;-92
2022/03/15 09:31:28;;;;;;;13.73;3.72;;;11.10;99.90;;;;;;7346137;19;109143;-93
2022/03/15 09:33:55;;;;;;;17.15;4.03;;;11.10;99.90;;;;;;7347502;19;112231;-93
2022/03/15 09:36:23;;;;;;;6.43;3.60;;;11.10;99.90;;;;;;7347235;19;109216;-93
2022/03/15 09:38:50;;;;;;;10.95;4.10;;;11.20;99.90;;;;;;7347212;19;108349;-93
2022/03/15 09:41:18;;;;;;;8.25;3.80;;;11.20;99.90;;;;;;7346700;19;110293;-93
2022/03/15 09:43:47;;;;;;;11.35;3.83;;;11.30;99.90;;;;;;7354522;19;111268;-93
2022/03/15 09:46:17;;;;;;;6.03;3.47;;;11.30;99.90;;;;;;7348646;19;109192;-93
2022/03/15 09:49:06;;;;;;;9.05;4.05;;;11.40;99.90;;;;;;7347281;19;110458;-93
2022/03/15 09:51:35;;;;;;;11.40;4.13;;;11.50;99.90;;;;;;7348165;19;108543;-93
2022/03/15 09:54:06;;;;;;;10.82;3.70;;;11.50;99.90;;;;;;7347904;19;110498;-93
2022/03/15 09:56:38;;;;;;;10.85;4.07;;;11.50;99.90;;;;;;7345756;19;109500;-93
2022/03/15 09:59:27;;;;;;;8.70;3.95;;;11.60;99.90;;;;;;7346907;19;108373;-93
2022/03/15 10:01:57;;;;;;;8.85;3.90;;;11.60;99.90;;;;;;7346634;19;112014;-93
2022/03/15 10:04:26;;;;;;;10.40;3.42;;;11.60;99.90;;;;;;7347331;19;110327;-93
2022/03/15 10:06:54;;;;;;;6.63;3.75;;;11.70;99.90;;;;;;7351725;19;108315;-93
2022/03/15 10:09:25;;;;;;;9.43;3.70;;;11.70;99.90;;;;;;7348777;19;109775;-93
2022/03/15 10:11:53;;;;;;;9.27;3.92;;;11.70;99.90;;;;;;7345391;19;108729;-92
2022/03/15 10:14:20;;;;;;;9.38;3.92;;;11.70;99.90;;;;;;7345940;19;111883;-92
2022/03/15 10:16:50;;;;;;;9.23;4.30;;;11.80;99.90;;;;;;7345103;19;112743;-92
2022/03/15 10:19:18;;;;;;;11.77;4.32;;;11.90;99.90;;;;;;7343930;19;107998;-93
2022/03/15 10:21:49;;;;;;;12.55;4.63;;;11.90;99.90;;;;;;7345161;19;109347;-93
2022/03/15 10:24:19;;;;;;;8.98;4.25;;;11.90;99.90;;;;;;7346646;19;110519;-93
2022/03/15 10:26:47;;;;;;;10.68;4.80;;;11.90;99.90;;;;;;7345494;19;109922;-93
2022/03/15 10:29:16;;;;;;;8.68;4.55;;;12.00;99.90;;;;;;7352008;19;108589;-93
2022/03/15 10:31:44;;;;;;;8.30;4.88;;;12.00;99.90;;;;;;7346017;19;108330;-94
2022/03/15 10:34:14;;;;;;;12.07;4.75;;;11.90;99.90;;;;;;7347085;19;112695;-93
2022/03/15 10:36:44;;;;;;;11.98;4.90;;;12.00;99.90;;;;;;7347425;19;108258;-93
2022/03/15 10:39:13;;;;;;;9.38;4.93;;;12.00;99.90;;;;;;7348482;19;110778;-93
2022/03/15 10:41:52;;;;;;;8.07;4.82;;;12.00;99.90;;;;;;7343409;19;109417;-94
2022/03/15 10:44:20;;;;;;;11.85;5.60;;;12.00;99.90;;;;;;7352988;19;113105;-94
2022/03/15 10:47:15;;;;;;;8.77;5.07;;;12.10;99.90;;;;;;7354004;19;108583;-92
2022/03/15 10:49:49;;;;;;;13.00;5.97;;;12.20;99.90;;;;;;7353361;19;109459;-93
2022/03/15 10:52:34;;;;;;;8.65;5.72;;;12.20;99.90;;;;;;7357691;19;109480;-93
2022/03/15 10:55:10;;;;;;;11.77;5.00;;;12.20;99.90;;;;;;7353311;19;111861;-93
2022/03/15 10:57:52;;;;;;;8.85;4.97;;;12.30;99.90;;;;;;7350930;19;110488;-93
2022/03/15 11:00:29;;;;;;;10.90;5.10;;;12.40;99.90;;;;;;7350201;19;108283;-94
2022/03/15 11:02:57;;;;;;;10.35;4.95;;;12.40;99.90;;;;;;7342186;19;111545;-84
2022/03/15 11:05:33;;;;;;;12.15;5.05;;;12.40;99.90;;;;;;7342299;19;109806;-85
2022/03/15 11:08:07;;;;;;;9.95;4.78;;;12.50;99.90;;;;;;7342010;19;108590;-84
2022/03/15 11:10:39;;;;;;;11.13;4.75;;;12.60;99.90;;;;;;7344301;19;113337;-84
2022/03/15 11:13:12;;;;;;;9.00;4.88;;;12.60;99.90;;;;;;7344620;19;110254;-85
2022/03/15 11:15:42;;;;;;;15.15;4.75;;;12.70;99.90;;;;;;7347301;19;108298;-85
2022/03/15 11:18:14;;;;;;;15.68;5.18;;;12.70;99.90;;;;;;7342352;19;110137;-84
2022/03/15 11:20:43;;;;;;;11.85;4.90;;;12.80;99.90;;;;;;7343771;19;108656;-84
2022/03/15 11:23:18;;;;;;;10.00;3.92;;;12.80;99.90;;;;;;7344708;19;109818;-84
2022/03/15 11:26:05;;;;;;;8.68;3.90;;;12.80;99.90;;;;;;7343382;19;109941;-85
2022/03/15 11:28:36;;;;;;;7.80;4.80;;;12.90;99.90;;;;;;7343517;19;108440;-85
2022/03/15 11:31:04;;;;;;;10.57;4.20;;;12.80;99.90;;;;;;7343569;19;109046;-84
2022/03/15 11:33:31;;;;;;;10.82;4.25;;;12.80;99.90;;;;;;7343187;19;110429;-84
2022/03/15 11:36:04;;;;;;;7.65;3.53;;;12.70;99.90;;;;;;7348334;19;108677;-84
2022/03/15 11:38:35;;;;;;;9.05;3.67;;;12.70;99.90;;;;;;7343974;19;110499;-83
2022/03/15 11:41:03;;;;;;;11.25;4.32;;;12.80;99.90;;;;;;7344029;19;110862;-85
2022/03/15 11:43:50;;;;;;;6.63;3.80;;;12.90;99.90;;;;;;7343607;19;109698;-84
2022/03/15 11:46:27;;;;;;;7.60;3.88;;;13.00;99.90;;;;;;7342745;19;110573;-84
2022/03/15 11:49:06;;;;;;;11.50;3.47;;;12.90;99.80;;;;;;7341855;19;110729;-85
2022/03/15 11:52:19;;;;;;;10.25;3.92;;;12.90;99.80;;;;;;7342587;19;109818;-85
2022/03/15 11:55:11;;;;;;;9.75;4.05;;;12.90;99.90;;;;;;7338796;19;110569;-84
2022/03/15 11:57:45;;;;;;;8.63;4.00;;;13.00;99.90;;;;;;7343457;19;109261;-84
2022/03/15 12:00:28;;;;;;;7.78;3.55;;;12.90;99.80;;;;;;7347776;19;112767;-84
2022/03/15 12:02:59;;;;;;;11.02;5.63;;;12.90;99.80;;;;;;7338989;19;108823;-85
2022/03/15 12:05:27;;;;;;;8.55;5.28;;;12.80;99.90;;;;;;7342822;19;112485;-83
2022/03/15 12:08:12;;;;;;;13.55;5.53;;;12.70;99.90;;;;;;7340081;19;110578;-83
2022/03/15 12:10:55;;;;;;;11.25;5.35;;;12.80;99.70;;;;;;7341969;19;109411;-84
2022/03/15 12:13:45;;;;;;;12.38;5.60;;;12.80;99.90;;;;;;7338456;19;112744;-84
2022/03/15 12:16:15;;;;;;;11.65;5.53;;;12.80;99.70;;;;;;7341443;19;110250;-84
2022/03/15 12:18:49;;;;;;;14.20;5.28;;;12.80;99.70;;;;;;7339543;19;108197;-84
2022/03/15 12:21:17;;;;;;;9.48;5.43;;;12.80;99.50;;;;;;7341322;19;111186;-84
2022/03/15 12:23:46;;;;;;;14.35;5.93;;;12.60;99.70;;;;;;7347054;19;112732;-86
2022/03/15 12:26:22;;;;;;;10.68;5.32;;;12.60;99.80;;;;;;7339677;19;111793;-86
2022/03/15 12:29:03;;;;;;;10.38;5.53;;;12.60;99.80;;;;;;7342089;19;110129;-87
2022/03/15 12:31:51;;;;;;;12.77;5.30;;;12.70;99.70;;;;;;7341955;19;108765;-84
2022/03/15 12:34:19;;;;;;;9.80;4.80;;;12.80;99.40;;;;;;7340985;19;109151;-84
2022/03/15 12:36:48;;;;;;;10.13;4.80;;;12.80;99.50;;;;;;7340430;19;110355;-85
2022/03/15 12:39:24;;;;;;;10.70;4.88;;;12.80;99.60;;;;;;7339480;19;108431;-84
2022/03/15 12:42:13;;;;;;;6.88;4.65;;;12.80;99.50;;;;;;7336075;19;110756;-84
2022/03/15 12:44:48;;;;;;;10.05;5.13;;;12.70;99.50;;;;;;7337814;19;110360;-84
2022/03/15 12:47:27;;;;;;;12.32;4.70;;;12.60;99.80;;;;;;7345232;19;113214;-85